sensor_id;sensor_type;location;lat;lon;timestamp;temperature;humidity
67101;DHT22;54019;61.746;16.106;2022-10-31T00:01:06;20.40;30.80
67101;DHT22;54019;61.746;16.106;2022-10-31T00:03:34;20.40;30.80
67101;DHT22;54019;61.746;16.106;2022-10-31T00:06:00;20.40;30.80
67101;DHT22;54019;61.746;16.106;2022-10-31T00:08:27;20.40;30.80
67101;DHT22;54019;61.746;16.106;2022-10-31T00:10:53;20.40;30.90
67101;DHT22;54019;61.746;16.106;2022-10-31T00:13:19;20.40;30.80
67101;DHT22;54019;61.746;16.106;2022-10-31T00:15:45;20.40;30.90
67101;DHT22;54019;61.746;16.106;2022-10-31T00:18:10;20.40;30.90
67101;DHT22;54019;61.746;16.106;2022-10-31T00:20:37;20.40;30.90
67101;DHT22;54019;61.746;16.106;2022-10-31T00:23:04;20.40;30.80
67101;DHT22;54019;61.746;16.106;2022-10-31T00:25:34;20.40;30.70
67101;DHT22;54019;61.746;16.106;2022-10-31T00:28:00;20.40;30.80
67101;DHT22;54019;61.746;16.106;2022-10-31T00:30:26;20.40;30.80
67101;DHT22;54019;61.746;16.106;2022-10-31T00:32:51;20.40;30.80
67101;DHT22;54019;61.746;16.106;2022-10-31T00:35:17;20.40;30.80
67101;DHT22;54019;61.746;16.106;2022-10-31T00:37:43;20.40;30.80
67101;DHT22;54019;61.746;16.106;2022-10-31T00:40:10;20.40;30.80
67101;DHT22;54019;61.746;16.106;2022-10-31T00:42:39;20.40;30.80
67101;DHT22;54019;61.746;16.106;2022-10-31T00:45:05;20.30;30.80
67101;DHT22;54019;61.746;16.106;2022-10-31T00:47:31;20.40;30.70
67101;DHT22;54019;61.746;16.106;2022-10-31T00:49:57;20.40;30.80
67101;DHT22;54019;61.746;16.106;2022-10-31T00:52:23;20.30;30.80
67101;DHT22;54019;61.746;16.106;2022-10-31T00:54:48;20.30;30.80
67101;DHT22;54019;61.746;16.106;2022-10-31T00:57:14;20.40;30.80
67101;DHT22;54019;61.746;16.106;2022-10-31T00:59:41;20.30;30.80
67101;DHT22;54019;61.746;16.106;2022-10-31T01:02:07;20.30;30.80
67101;DHT22;54019;61.746;16.106;2022-10-31T01:04:33;20.30;30.80
67101;DHT22;54019;61.746;16.106;2022-10-31T01:06:59;20.30;30.80
67101;DHT22;54019;61.746;16.106;2022-10-31T01:09:24;20.30;30.80
67101;DHT22;54019;61.746;16.106;2022-10-31T01:11:50;20.40;30.80
67101;DHT22;54019;61.746;16.106;2022-10-31T01:14:16;20.30;30.80
67101;DHT22;54019;61.746;16.106;2022-10-31T01:16:43;20.30;30.80
67101;DHT22;54019;61.746;16.106;2022-10-31T01:19:09;20.30;30.80
67101;DHT22;54019;61.746;16.106;2022-10-31T01:21:35;20.30;30.80
67101;DHT22;54019;61.746;16.106;2022-10-31T01:24:01;20.30;30.80
67101;DHT22;54019;61.746;16.106;2022-10-31T01:26:28;20.30;30.80
67101;DHT22;54019;61.746;16.106;2022-10-31T01:28:56;20.30;30.80
67101;DHT22;54019;61.746;16.106;2022-10-31T01:31:24;20.30;30.90
67101;DHT22;54019;61.746;16.106;2022-10-31T01:33:52;20.30;30.80
67101;DHT22;54019;61.746;16.106;2022-10-31T01:36:21;20.30;30.80
67101;DHT22;54019;61.746;16.106;2022-10-31T01:38:48;20.20;30.80
67101;DHT22;54019;61.746;16.106;2022-10-31T01:41:15;20.20;30.80
67101;DHT22;54019;61.746;16.106;2022-10-31T01:43:43;20.30;30.90
67101;DHT22;54019;61.746;16.106;2022-10-31T01:46:09;20.30;30.80
67101;DHT22;54019;61.746;16.106;2022-10-31T01:48:35;20.30;30.90
67101;DHT22;54019;61.746;16.106;2022-10-31T01:51:03;20.30;30.80
67101;DHT22;54019;61.746;16.106;2022-10-31T01:53:29;20.20;30.70
67101;DHT22;54019;61.746;16.106;2022-10-31T01:55:55;20.30;30.80
67101;DHT22;54019;61.746;16.106;2022-10-31T01:58:24;20.30;30.80
67101;DHT22;54019;61.746;16.106;2022-10-31T02:00:53;20.20;30.80
67101;DHT22;54019;61.746;16.106;2022-10-31T02:03:20;20.30;30.80
67101;DHT22;54019;61.746;16.106;2022-10-31T02:05:48;20.30;30.80
67101;DHT22;54019;61.746;16.106;2022-10-31T02:08:20;20.20;30.70
67101;DHT22;54019;61.746;16.106;2022-10-31T02:10:47;20.30;30.70
67101;DHT22;54019;61.746;16.106;2022-10-31T02:13:13;20.20;30.70
67101;DHT22;54019;61.746;16.106;2022-10-31T02:15:40;20.20;30.80
67101;DHT22;54019;61.746;16.106;2022-10-31T02:18:07;20.20;30.80
67101;DHT22;54019;61.746;16.106;2022-10-31T02:20:41;20.20;30.70
67101;DHT22;54019;61.746;16.106;2022-10-31T02:29:50;20.20;30.70
67101;DHT22;54019;61.746;16.106;2022-10-31T02:32:25;20.20;30.70
67101;DHT22;54019;61.746;16.106;2022-10-31T02:34:57;20.20;30.80
67101;DHT22;54019;61.746;16.106;2022-10-31T02:37:27;20.20;30.80
67101;DHT22;54019;61.746;16.106;2022-10-31T02:40:01;20.20;30.80
67101;DHT22;54019;61.746;16.106;2022-10-31T02:42:33;20.20;30.80
67101;DHT22;54019;61.746;16.106;2022-10-31T02:45:06;20.10;30.70
67101;DHT22;54019;61.746;16.106;2022-10-31T02:47:37;20.20;30.80
67101;DHT22;54019;61.746;16.106;2022-10-31T02:50:07;20.10;30.80
67101;DHT22;54019;61.746;16.106;2022-10-31T02:52:35;20.20;30.80
67101;DHT22;54019;61.746;16.106;2022-10-31T02:55:10;20.20;30.80
67101;DHT22;54019;61.746;16.106;2022-10-31T02:57:37;20.20;30.80
67101;DHT22;54019;61.746;16.106;2022-10-31T03:00:07;20.20;30.80
67101;DHT22;54019;61.746;16.106;2022-10-31T03:02:52;20.20;30.70
67101;DHT22;54019;61.746;16.106;2022-10-31T03:05:29;20.20;30.80
67101;DHT22;54019;61.746;16.106;2022-10-31T03:08:01;20.10;30.80
67101;DHT22;54019;61.746;16.106;2022-10-31T03:10:33;20.10;30.80
67101;DHT22;54019;61.746;16.106;2022-10-31T03:13:04;20.10;30.80
67101;DHT22;54019;61.746;16.106;2022-10-31T03:15:33;20.10;30.90
67101;DHT22;54019;61.746;16.106;2022-10-31T03:18:06;20.10;30.80
67101;DHT22;54019;61.746;16.106;2022-10-31T03:20:36;20.10;30.90
67101;DHT22;54019;61.746;16.106;2022-10-31T03:23:04;20.10;30.80
67101;DHT22;54019;61.746;16.106;2022-10-31T03:25:32;20.10;30.90
67101;DHT22;54019;61.746;16.106;2022-10-31T03:28:01;20.10;30.80
67101;DHT22;54019;61.746;16.106;2022-10-31T03:30:29;20.10;30.80
67101;DHT22;54019;61.746;16.106;2022-10-31T03:33:00;20.10;30.80
67101;DHT22;54019;61.746;16.106;2022-10-31T03:35:29;20.10;30.80
67101;DHT22;54019;61.746;16.106;2022-10-31T03:37:56;20.10;30.80
67101;DHT22;54019;61.746;16.106;2022-10-31T03:40:26;20.10;30.80
67101;DHT22;54019;61.746;16.106;2022-10-31T03:42:57;20.10;30.80
67101;DHT22;54019;61.746;16.106;2022-10-31T03:45:26;20.10;30.90
67101;DHT22;54019;61.746;16.106;2022-10-31T03:47:54;20.10;30.90
67101;DHT22;54019;61.746;16.106;2022-10-31T03:50:21;20.10;30.90
67101;DHT22;54019;61.746;16.106;2022-10-31T03:52:52;20.10;30.90
67101;DHT22;54019;61.746;16.106;2022-10-31T03:55:21;20.10;30.90
67101;DHT22;54019;61.746;16.106;2022-10-31T03:57:51;20.10;30.80
67101;DHT22;54019;61.746;16.106;2022-10-31T04:00:18;20.10;30.80
67101;DHT22;54019;61.746;16.106;2022-10-31T04:02:49;20.10;30.80
67101;DHT22;54019;61.746;16.106;2022-10-31T04:05:17;20.10;30.80
67101;DHT22;54019;61.746;16.106;2022-10-31T04:07:45;20.10;30.80
67101;DHT22;54019;61.746;16.106;2022-10-31T04:10:14;20.10;30.90
67101;DHT22;54019;61.746;16.106;2022-10-31T04:12:42;20.00;30.80
67101;DHT22;54019;61.746;16.106;2022-10-31T04:15:10;20.00;30.80
67101;DHT22;54019;61.746;16.106;2022-10-31T04:17:40;20.00;30.80
67101;DHT22;54019;61.746;16.106;2022-10-31T04:20:08;20.00;30.80
67101;DHT22;54019;61.746;16.106;2022-10-31T04:22:34;20.00;30.80
67101;DHT22;54019;61.746;16.106;2022-10-31T04:24:59;20.10;30.90
67101;DHT22;54019;61.746;16.106;2022-10-31T04:27:26;20.10;30.90
67101;DHT22;54019;61.746;16.106;2022-10-31T04:29:52;20.10;30.90
67101;DHT22;54019;61.746;16.106;2022-10-31T04:32:18;20.00;30.80
67101;DHT22;54019;61.746;16.106;2022-10-31T04:34:44;20.10;30.90
67101;DHT22;54019;61.746;16.106;2022-10-31T04:37:10;20.00;31.50
67101;DHT22;54019;61.746;16.106;2022-10-31T04:39:35;20.00;30.80
67101;DHT22;54019;61.746;16.106;2022-10-31T04:42:01;20.00;30.90
67101;DHT22;54019;61.746;16.106;2022-10-31T04:44:28;20.00;30.90
67101;DHT22;54019;61.746;16.106;2022-10-31T04:46:54;20.00;30.90
67101;DHT22;54019;61.746;16.106;2022-10-31T04:49:20;20.00;30.90
67101;DHT22;54019;61.746;16.106;2022-10-31T04:51:46;20.00;31.00
67101;DHT22;54019;61.746;16.106;2022-10-31T04:54:11;20.00;31.00
67101;DHT22;54019;61.746;16.106;2022-10-31T04:56:37;20.00;31.00
67101;DHT22;54019;61.746;16.106;2022-10-31T04:59:03;20.00;31.00
67101;DHT22;54019;61.746;16.106;2022-10-31T05:01:30;20.00;30.90
67101;DHT22;54019;61.746;16.106;2022-10-31T05:03:56;20.00;30.90
67101;DHT22;54019;61.746;16.106;2022-10-31T05:06:22;20.00;30.90
67101;DHT22;54019;61.746;16.106;2022-10-31T05:08:47;20.10;30.80
67101;DHT22;54019;61.746;16.106;2022-10-31T05:11:13;20.10;30.70
67101;DHT22;54019;61.746;16.106;2022-10-31T05:13:39;20.10;30.70
67101;DHT22;54019;61.746;16.106;2022-10-31T05:16:05;20.10;30.70
67101;DHT22;54019;61.746;16.106;2022-10-31T05:18:33;20.10;30.70
67101;DHT22;54019;61.746;16.106;2022-10-31T05:20:58;20.10;30.70
67101;DHT22;54019;61.746;16.106;2022-10-31T05:23:24;20.10;30.70
67101;DHT22;54019;61.746;16.106;2022-10-31T05:25:50;20.10;30.60
67101;DHT22;54019;61.746;16.106;2022-10-31T05:28:16;20.20;30.50
67101;DHT22;54019;61.746;16.106;2022-10-31T05:30:41;20.30;30.40
67101;DHT22;54019;61.746;16.106;2022-10-31T05:33:07;20.40;30.10
67101;DHT22;54019;61.746;16.106;2022-10-31T05:35:34;20.40;30.70
67101;DHT22;54019;61.746;16.106;2022-10-31T05:38:00;20.50;30.00
67101;DHT22;54019;61.746;16.106;2022-10-31T05:40:27;20.50;29.90
67101;DHT22;54019;61.746;16.106;2022-10-31T05:42:55;20.50;29.80
67101;DHT22;54019;61.746;16.106;2022-10-31T05:45:21;20.50;29.80
67101;DHT22;54019;61.746;16.106;2022-10-31T05:47:51;20.50;29.90
67101;DHT22;54019;61.746;16.106;2022-10-31T05:50:17;20.50;30.00
67101;DHT22;54019;61.746;16.106;2022-10-31T05:52:44;20.50;30.10
67101;DHT22;54019;61.746;16.106;2022-10-31T05:55:10;20.40;30.00
67101;DHT22;54019;61.746;16.106;2022-10-31T05:57:36;20.40;30.00
67101;DHT22;54019;61.746;16.106;2022-10-31T06:00:03;20.40;30.10
67101;DHT22;54019;61.746;16.106;2022-10-31T06:02:29;20.40;30.20
67101;DHT22;54019;61.746;16.106;2022-10-31T06:04:55;20.40;30.30
67101;DHT22;54019;61.746;16.106;2022-10-31T06:07:21;20.40;30.20
67101;DHT22;54019;61.746;16.106;2022-10-31T06:09:48;20.50;30.20
67101;DHT22;54019;61.746;16.106;2022-10-31T06:12:14;20.50;30.10
67101;DHT22;54019;61.746;16.106;2022-10-31T06:14:40;20.60;29.90
67101;DHT22;54019;61.746;16.106;2022-10-31T06:17:05;20.70;29.80
67101;DHT22;54019;61.746;16.106;2022-10-31T06:19:31;20.70;29.80
67101;DHT22;54019;61.746;16.106;2022-10-31T06:21:57;20.70;29.80
67101;DHT22;54019;61.746;16.106;2022-10-31T06:24:23;20.70;29.80
67101;DHT22;54019;61.746;16.106;2022-10-31T06:26:50;20.70;29.80
67101;DHT22;54019;61.746;16.106;2022-10-31T06:29:16;20.70;29.90
67101;DHT22;54019;61.746;16.106;2022-10-31T06:31:41;20.60;30.00
67101;DHT22;54019;61.746;16.106;2022-10-31T06:34:07;20.60;30.10
67101;DHT22;54019;61.746;16.106;2022-10-31T06:36:33;20.50;30.10
67101;DHT22;54019;61.746;16.106;2022-10-31T06:39:00;20.50;30.20
67101;DHT22;54019;61.746;16.106;2022-10-31T06:41:26;20.50;30.20
67101;DHT22;54019;61.746;16.106;2022-10-31T06:43:53;20.50;30.20
67101;DHT22;54019;61.746;16.106;2022-10-31T06:46:19;20.50;30.10
67101;DHT22;54019;61.746;16.106;2022-10-31T06:48:44;20.60;30.00
67101;DHT22;54019;61.746;16.106;2022-10-31T06:51:10;20.70;30.00
67101;DHT22;54019;61.746;16.106;2022-10-31T06:53:36;20.70;29.90
67101;DHT22;54019;61.746;16.106;2022-10-31T06:56:02;20.80;29.80
67101;DHT22;54019;61.746;16.106;2022-10-31T06:58:28;20.80;29.80
67101;DHT22;54019;61.746;16.106;2022-10-31T07:00:55;20.80;29.70
67101;DHT22;54019;61.746;16.106;2022-10-31T07:03:23;20.80;29.80
67101;DHT22;54019;61.746;16.106;2022-10-31T07:05:49;20.80;29.80
67101;DHT22;54019;61.746;16.106;2022-10-31T07:08:15;20.70;29.90
67101;DHT22;54019;61.746;16.106;2022-10-31T07:10:42;20.70;29.90
67101;DHT22;54019;61.746;16.106;2022-10-31T07:13:10;20.70;29.90
67101;DHT22;54019;61.746;16.106;2022-10-31T07:15:38;20.70;30.10
67101;DHT22;54019;61.746;16.106;2022-10-31T07:18:07;20.60;30.20
67101;DHT22;54019;61.746;16.106;2022-10-31T07:20:33;20.60;30.30
67101;DHT22;54019;61.746;16.106;2022-10-31T07:22:59;20.60;30.30
67101;DHT22;54019;61.746;16.106;2022-10-31T07:25:26;20.60;30.10
67101;DHT22;54019;61.746;16.106;2022-10-31T07:27:51;20.70;30.10
67101;DHT22;54019;61.746;16.106;2022-10-31T07:30:17;20.80;30.10
67101;DHT22;54019;61.746;16.106;2022-10-31T07:32:44;20.80;30.00
67101;DHT22;54019;61.746;16.106;2022-10-31T07:35:13;20.80;29.90
67101;DHT22;54019;61.746;16.106;2022-10-31T07:37:39;20.80;29.90
67101;DHT22;54019;61.746;16.106;2022-10-31T07:40:07;20.80;29.90
67101;DHT22;54019;61.746;16.106;2022-10-31T07:42:34;20.80;29.90
67101;DHT22;54019;61.746;16.106;2022-10-31T07:45:00;20.80;30.00
67101;DHT22;54019;61.746;16.106;2022-10-31T07:47:26;20.80;30.00
67101;DHT22;54019;61.746;16.106;2022-10-31T07:49:52;20.80;30.00
67101;DHT22;54019;61.746;16.106;2022-10-31T07:52:19;20.80;30.10
67101;DHT22;54019;61.746;16.106;2022-10-31T07:54:45;20.70;30.10
67101;DHT22;54019;61.746;16.106;2022-10-31T07:57:10;20.70;30.40
67101;DHT22;54019;61.746;16.106;2022-10-31T07:59:36;20.60;30.20
67101;DHT22;54019;61.746;16.106;2022-10-31T08:02:02;20.60;30.30
67101;DHT22;54019;61.746;16.106;2022-10-31T08:04:28;20.70;30.20
67101;DHT22;54019;61.746;16.106;2022-10-31T08:06:54;20.70;30.10
67101;DHT22;54019;61.746;16.106;2022-10-31T08:09:21;20.80;30.20
67101;DHT22;54019;61.746;16.106;2022-10-31T08:11:46;20.80;30.10
67101;DHT22;54019;61.746;16.106;2022-10-31T08:14:12;20.80;30.00
67101;DHT22;54019;61.746;16.106;2022-10-31T08:16:38;20.80;30.00
67101;DHT22;54019;61.746;16.106;2022-10-31T08:19:04;20.90;30.00
67101;DHT22;54019;61.746;16.106;2022-10-31T08:21:30;20.90;30.10
67101;DHT22;54019;61.746;16.106;2022-10-31T08:23:55;20.80;30.10
67101;DHT22;54019;61.746;16.106;2022-10-31T08:26:23;20.80;30.10
67101;DHT22;54019;61.746;16.106;2022-10-31T08:28:48;20.80;30.10
67101;DHT22;54019;61.746;16.106;2022-10-31T08:31:14;20.80;30.20
67101;DHT22;54019;61.746;16.106;2022-10-31T08:33:40;20.70;30.30
67101;DHT22;54019;61.746;16.106;2022-10-31T08:36:06;20.70;30.40
67101;DHT22;54019;61.746;16.106;2022-10-31T08:38:32;20.70;30.40
67101;DHT22;54019;61.746;16.106;2022-10-31T08:40:58;20.60;30.50
67101;DHT22;54019;61.746;16.106;2022-10-31T08:43:25;20.60;30.50
67101;DHT22;54019;61.746;16.106;2022-10-31T08:45:51;20.60;30.60
67101;DHT22;54019;61.746;16.106;2022-10-31T08:48:17;20.70;30.50
67101;DHT22;54019;61.746;16.106;2022-10-31T08:50:44;20.80;30.50
67101;DHT22;54019;61.746;16.106;2022-10-31T08:53:12;20.80;30.40
67101;DHT22;54019;61.746;16.106;2022-10-31T08:55:39;20.90;30.40
67101;DHT22;54019;61.746;16.106;2022-10-31T08:58:06;20.90;30.40
67101;DHT22;54019;61.746;16.106;2022-10-31T09:00:34;20.90;30.30
67101;DHT22;54019;61.746;16.106;2022-10-31T09:03:03;20.90;30.50
67101;DHT22;54019;61.746;16.106;2022-10-31T09:05:29;20.80;30.30
67101;DHT22;54019;61.746;16.106;2022-10-31T09:07:56;20.90;30.60
67101;DHT22;54019;61.746;16.106;2022-10-31T09:10:22;20.80;30.40
67101;DHT22;54019;61.746;16.106;2022-10-31T09:12:53;20.80;30.50
67101;DHT22;54019;61.746;16.106;2022-10-31T09:15:19;20.70;30.60
67101;DHT22;54019;61.746;16.106;2022-10-31T09:17:47;20.70;30.70
67101;DHT22;54019;61.746;16.106;2022-10-31T09:20:13;20.70;30.80
67101;DHT22;54019;61.746;16.106;2022-10-31T09:22:39;20.70;31.70
67101;DHT22;54019;61.746;16.106;2022-10-31T09:25:05;20.60;31.10
67101;DHT22;54019;61.746;16.106;2022-10-31T09:27:31;20.60;31.30
67101;DHT22;54019;61.746;16.106;2022-10-31T09:29:57;20.60;31.20
67101;DHT22;54019;61.746;16.106;2022-10-31T09:32:23;20.60;31.20
67101;DHT22;54019;61.746;16.106;2022-10-31T09:34:50;20.60;31.10
67101;DHT22;54019;61.746;16.106;2022-10-31T09:37:16;20.70;31.20
67101;DHT22;54019;61.746;16.106;2022-10-31T09:39:42;20.80;31.00
67101;DHT22;54019;61.746;16.106;2022-10-31T09:42:37;20.80;31.00
67101;DHT22;54019;61.746;16.106;2022-10-31T09:45:11;20.80;30.90
67101;DHT22;54019;61.746;16.106;2022-10-31T09:47:51;20.80;30.90
67101;DHT22;54019;61.746;16.106;2022-10-31T09:50:22;20.80;30.90
67101;DHT22;54019;61.746;16.106;2022-10-31T09:52:56;20.80;30.80
67101;DHT22;54019;61.746;16.106;2022-10-31T09:55:30;20.80;30.90
67101;DHT22;54019;61.746;16.106;2022-10-31T09:57:58;20.80;31.00
67101;DHT22;54019;61.746;16.106;2022-10-31T10:00:24;20.80;31.00
67101;DHT22;54019;61.746;16.106;2022-10-31T10:02:55;20.80;31.00
67101;DHT22;54019;61.746;16.106;2022-10-31T10:05:27;20.70;31.20
67101;DHT22;54019;61.746;16.106;2022-10-31T10:08:00;20.70;31.30
67101;DHT22;54019;61.746;16.106;2022-10-31T10:10:33;20.70;31.40
67101;DHT22;54019;61.746;16.106;2022-10-31T10:43:59;20.90;31.40
67101;DHT22;54019;61.746;16.106;2022-10-31T10:46:34;20.90;31.30
67101;DHT22;54019;61.746;16.106;2022-10-31T10:49:12;20.90;31.50
67101;DHT22;54019;61.746;16.106;2022-10-31T10:51:44;20.90;31.60
67101;DHT22;54019;61.746;16.106;2022-10-31T10:54:29;20.90;31.70
67101;DHT22;54019;61.746;16.106;2022-10-31T10:57:04;20.80;31.70
67101;DHT22;54019;61.746;16.106;2022-10-31T10:59:34;20.80;31.70
67101;DHT22;54019;61.746;16.106;2022-10-31T11:02:00;20.80;31.80
67101;DHT22;54019;61.746;16.106;2022-10-31T11:04:30;20.80;31.80
67101;DHT22;54019;61.746;16.106;2022-10-31T11:07:01;20.70;31.90
67101;DHT22;54019;61.746;16.106;2022-10-31T11:09:27;20.80;32.20
67101;DHT22;54019;61.746;16.106;2022-10-31T11:11:54;20.80;32.00
67101;DHT22;54019;61.746;16.106;2022-10-31T11:14:20;20.80;31.90
67101;DHT22;54019;61.746;16.106;2022-10-31T11:16:49;20.70;32.10
67101;DHT22;54019;61.746;16.106;2022-10-31T11:19:18;20.70;32.00
67101;DHT22;54019;61.746;16.106;2022-10-31T11:21:45;20.80;32.00
67101;DHT22;54019;61.746;16.106;2022-10-31T11:24:16;20.70;32.70
67101;DHT22;54019;61.746;16.106;2022-10-31T11:26:44;20.70;32.20
67101;DHT22;54019;61.746;16.106;2022-10-31T11:29:15;20.70;32.20
67101;DHT22;54019;61.746;16.106;2022-10-31T11:31:41;20.70;32.20
67101;DHT22;54019;61.746;16.106;2022-10-31T11:34:15;20.80;32.10
67101;DHT22;54019;61.746;16.106;2022-10-31T11:36:43;20.80;32.10
67101;DHT22;54019;61.746;16.106;2022-10-31T11:39:16;20.90;32.20
67101;DHT22;54019;61.746;16.106;2022-10-31T11:41:43;21.00;31.80
67101;DHT22;54019;61.746;16.106;2022-10-31T11:44:13;21.00;31.90
67101;DHT22;54019;61.746;16.106;2022-10-31T11:46:41;21.00;31.90
67101;DHT22;54019;61.746;16.106;2022-10-31T11:49:15;21.00;31.70
67101;DHT22;54019;61.746;16.106;2022-10-31T11:51:42;21.00;31.90
67101;DHT22;54019;61.746;16.106;2022-10-31T11:54:20;21.00;31.90
67101;DHT22;54019;61.746;16.106;2022-10-31T11:56:46;21.00;31.90
67101;DHT22;54019;61.746;16.106;2022-10-31T11:59:22;20.90;32.00
67101;DHT22;54019;61.746;16.106;2022-10-31T12:01:50;20.90;32.10
67101;DHT22;54019;61.746;16.106;2022-10-31T12:04:17;20.90;32.10
67101;DHT22;54019;61.746;16.106;2022-10-31T12:06:44;20.90;32.10
67101;DHT22;54019;61.746;16.106;2022-10-31T12:09:18;20.90;32.20
67101;DHT22;54019;61.746;16.106;2022-10-31T12:12:09;20.90;32.10
67101;DHT22;54019;61.746;16.106;2022-10-31T12:14:42;20.90;32.20
67101;DHT22;54019;61.746;16.106;2022-10-31T12:17:14;20.90;32.30
67101;DHT22;54019;61.746;16.106;2022-10-31T12:19:50;20.90;32.30
67101;DHT22;54019;61.746;16.106;2022-10-31T12:22:24;20.90;32.40
67101;DHT22;54019;61.746;16.106;2022-10-31T12:25:16;20.90;32.40
67101;DHT22;54019;61.746;16.106;2022-10-31T12:28:02;20.80;32.30
67101;DHT22;54019;61.746;16.106;2022-10-31T12:30:37;20.90;32.20
67101;DHT22;54019;61.746;16.106;2022-10-31T12:33:24;20.90;32.30
67101;DHT22;54019;61.746;16.106;2022-10-31T12:36:11;20.80;32.50
67101;DHT22;54019;61.746;16.106;2022-10-31T12:39:06;20.80;32.40
67101;DHT22;54019;61.746;16.106;2022-10-31T12:41:46;20.80;32.40
67101;DHT22;54019;61.746;16.106;2022-10-31T12:44:21;20.80;32.50
67101;DHT22;54019;61.746;16.106;2022-10-31T12:47:01;20.80;32.50
67101;DHT22;54019;61.746;16.106;2022-10-31T12:49:42;20.80;32.60
67101;DHT22;54019;61.746;16.106;2022-10-31T12:52:31;20.90;33.10
67101;DHT22;54019;61.746;16.106;2022-10-31T12:55:09;20.90;32.60
67101;DHT22;54019;61.746;16.106;2022-10-31T12:57:41;21.00;32.50
67101;DHT22;54019;61.746;16.106;2022-10-31T13:00:12;21.00;32.30
67101;DHT22;54019;61.746;16.106;2022-10-31T13:02:42;21.10;32.30
67101;DHT22;54019;61.746;16.106;2022-10-31T13:05:17;21.10;32.30
67101;DHT22;54019;61.746;16.106;2022-10-31T13:07:48;21.10;32.30
67101;DHT22;54019;61.746;16.106;2022-10-31T13:10:19;21.10;32.30
67101;DHT22;54019;61.746;16.106;2022-10-31T13:12:49;21.10;32.30
67101;DHT22;54019;61.746;16.106;2022-10-31T13:15:19;21.10;32.40
67101;DHT22;54019;61.746;16.106;2022-10-31T13:17:48;21.00;32.30
67101;DHT22;54019;61.746;16.106;2022-10-31T13:20:23;21.00;32.30
67101;DHT22;54019;61.746;16.106;2022-10-31T13:22:53;21.00;32.50
67101;DHT22;54019;61.746;16.106;2022-10-31T13:25:23;21.10;33.20
67101;DHT22;54019;61.746;16.106;2022-10-31T13:27:54;21.10;32.60
67101;DHT22;54019;61.746;16.106;2022-10-31T13:30:22;21.00;32.70
67101;DHT22;54019;61.746;16.106;2022-10-31T13:32:52;21.00;32.70
67101;DHT22;54019;61.746;16.106;2022-10-31T13:35:26;21.00;32.90
67101;DHT22;54019;61.746;16.106;2022-10-31T13:38:05;21.00;32.80
67101;DHT22;54019;61.746;16.106;2022-10-31T13:40:37;21.00;32.90
67101;DHT22;54019;61.746;16.106;2022-10-31T13:43:09;21.00;33.00
67101;DHT22;54019;61.746;16.106;2022-10-31T13:45:46;21.00;33.00
67101;DHT22;54019;61.746;16.106;2022-10-31T13:48:33;21.00;32.90
67101;DHT22;54019;61.746;16.106;2022-10-31T13:51:01;21.00;32.80
67101;DHT22;54019;61.746;16.106;2022-10-31T13:53:42;21.00;32.80
67101;DHT22;54019;61.746;16.106;2022-10-31T13:56:18;21.00;33.00
67101;DHT22;54019;61.746;16.106;2022-10-31T13:59:15;21.00;33.00
67101;DHT22;54019;61.746;16.106;2022-10-31T14:01:50;21.00;33.00
67101;DHT22;54019;61.746;16.106;2022-10-31T14:04:18;21.00;33.00
67101;DHT22;54019;61.746;16.106;2022-10-31T14:06:54;21.00;33.10
67101;DHT22;54019;61.746;16.106;2022-10-31T14:09:26;21.00;33.10
67101;DHT22;54019;61.746;16.106;2022-10-31T14:11:53;21.00;33.10
67101;DHT22;54019;61.746;16.106;2022-10-31T14:14:21;21.00;33.10
67101;DHT22;54019;61.746;16.106;2022-10-31T14:16:54;21.00;33.00
67101;DHT22;54019;61.746;16.106;2022-10-31T14:19:21;21.10;32.80
67101;DHT22;54019;61.746;16.106;2022-10-31T14:21:48;21.20;32.50
67101;DHT22;54019;61.746;16.106;2022-10-31T14:24:15;21.20;32.40
67101;DHT22;54019;61.746;16.106;2022-10-31T14:26:57;21.30;32.60
67101;DHT22;54019;61.746;16.106;2022-10-31T14:29:26;21.20;32.50
67101;DHT22;54019;61.746;16.106;2022-10-31T14:31:58;21.20;32.50
67101;DHT22;54019;61.746;16.106;2022-10-31T14:34:27;21.20;32.50
67101;DHT22;54019;61.746;16.106;2022-10-31T14:39:44;21.10;32.80
67101;DHT22;54019;61.746;16.106;2022-10-31T14:42:28;21.10;32.70
67101;DHT22;54019;61.746;16.106;2022-10-31T14:45:10;21.10;32.80
67101;DHT22;54019;61.746;16.106;2022-10-31T14:47:48;21.00;32.80
67101;DHT22;54019;61.746;16.106;2022-10-31T14:50:42;21.00;33.00
67101;DHT22;54019;61.746;16.106;2022-10-31T14:53:14;21.00;32.90
67101;DHT22;54019;61.746;16.106;2022-10-31T14:55:46;20.90;32.90
67101;DHT22;54019;61.746;16.106;2022-10-31T14:58:18;20.90;33.00
67101;DHT22;54019;61.746;16.106;2022-10-31T15:00:44;20.90;33.00
67101;DHT22;54019;61.746;16.106;2022-10-31T15:03:14;20.90;33.10
67101;DHT22;54019;61.746;16.106;2022-10-31T15:05:46;20.90;33.10
67101;DHT22;54019;61.746;16.106;2022-10-31T15:08:25;20.80;33.00
67101;DHT22;54019;61.746;16.106;2022-10-31T15:10:51;20.90;33.10
67101;DHT22;54019;61.746;16.106;2022-10-31T15:13:20;20.80;32.90
67101;DHT22;54019;61.746;16.106;2022-10-31T15:15:46;20.80;33.00
67101;DHT22;54019;61.746;16.106;2022-10-31T15:18:16;20.80;33.10
67101;DHT22;54019;61.746;16.106;2022-10-31T15:20:43;20.80;33.20
67101;DHT22;54019;61.746;16.106;2022-10-31T15:23:11;20.80;33.20
67101;DHT22;54019;61.746;16.106;2022-10-31T15:25:40;20.80;33.00
67101;DHT22;54019;61.746;16.106;2022-10-31T15:28:13;20.80;32.90
67101;DHT22;54019;61.746;16.106;2022-10-31T15:30:50;20.90;32.90
67101;DHT22;54019;61.746;16.106;2022-10-31T15:33:20;21.00;32.70
67101;DHT22;54019;61.746;16.106;2022-10-31T15:35:55;21.00;32.60
67101;DHT22;54019;61.746;16.106;2022-10-31T15:38:21;21.00;32.50
67101;DHT22;54019;61.746;16.106;2022-10-31T15:40:52;21.10;32.70
67101;DHT22;54019;61.746;16.106;2022-10-31T15:43:19;21.00;32.60
67101;DHT22;54019;61.746;16.106;2022-10-31T15:45:46;21.00;32.70
67101;DHT22;54019;61.746;16.106;2022-10-31T15:48:16;20.90;32.70
67101;DHT22;54019;61.746;16.106;2022-10-31T15:50:47;20.90;32.90
67101;DHT22;54019;61.746;16.106;2022-10-31T15:53:17;20.90;32.90
67101;DHT22;54019;61.746;16.106;2022-10-31T15:55:48;20.90;32.90
67101;DHT22;54019;61.746;16.106;2022-10-31T15:58:16;20.90;32.90
67101;DHT22;54019;61.746;16.106;2022-10-31T16:00:42;20.90;33.00
67101;DHT22;54019;61.746;16.106;2022-10-31T16:03:22;20.80;32.90
67101;DHT22;54019;61.746;16.106;2022-10-31T16:05:51;20.80;33.00
67101;DHT22;54019;61.746;16.106;2022-10-31T16:08:33;20.80;32.90